Time;durP1;ratioP1;P1;durP2;ratioP2;P2;SDS_P1;SDS_P2;PMS_P1;PMS_P2;Temp;Humidity;BMP_temperature;BMP_pressure;BME280_temperature;BME280_humidity;BME280_pressure;Samples;Min_cycle;Max_cycle;Signal;HPM_P1;HPM_P2
2021/06/10 00:01:08;;;;;;;8.03;7.23;;;15.20;99.90;;;;;;5035912;28;20450;-87
2021/06/10 00:03:34;;;;;;;9.03;8.07;;;15.20;99.90;;;;;;5035921;28;20451;-87
2021/06/10 00:06:00;;;;;;;8.87;7.97;;;15.20;99.90;;;;;;5035686;28;20454;-87
2021/06/10 00:08:26;;;;;;;9.27;8.13;;;15.20;99.90;;;;;;5036277;28;20442;-87
2021/06/10 00:10:54;;;;;;;8.87;7.93;;;15.20;99.90;;;;;;5035042;28;20450;-82
2021/06/10 00:13:21;;;;;;;9.37;7.90;;;15.20;99.90;;;;;;5035121;28;20451;-86
2021/06/10 00:15:48;;;;;;;9.87;8.03;;;15.10;99.90;;;;;;5035486;28;20446;-87
2021/06/10 00:18:14;;;;;;;9.43;8.40;;;15.10;99.90;;;;;;5035318;28;20478;-87
2021/06/10 00:20:41;;;;;;;9.83;7.63;;;15.10;99.90;;;;;;5035479;28;20489;-87
2021/06/10 00:23:08;;;;;;;9.70;8.73;;;15.10;99.90;;;;;;5035282;28;20455;-87
2021/06/10 00:25:36;;;;;;;9.70;8.70;;;15.10;99.90;;;;;;5034984;28;21007;-87
2021/06/10 00:28:03;;;;;;;10.83;8.40;;;15.10;99.90;;;;;;5035294;28;20522;-87
2021/06/10 00:30:32;;;;;;;10.10;9.10;;;15.10;99.90;;;;;;5035251;28;20454;-82
2021/06/10 00:32:58;;;;;;;8.90;8.00;;;15.00;99.90;;;;;;5034122;28;20477;-82
2021/06/10 00:35:25;;;;;;;9.00;8.00;;;15.10;99.90;;;;;;5033987;28;20437;-82
2021/06/10 00:37:56;;;;;;;10.40;8.50;;;15.00;99.90;;;;;;5033812;28;20462;-82
2021/06/10 00:40:23;;;;;;;10.17;8.63;;;15.00;99.90;;;;;;5034493;28;20446;-82
2021/06/10 00:42:49;;;;;;;9.40;8.40;;;15.00;99.90;;;;;;5034300;28;20471;-86
2021/06/10 00:45:18;;;;;;;11.30;9.23;;;15.00;99.90;;;;;;5035048;28;20554;-86
2021/06/10 00:47:46;;;;;;;9.70;8.77;;;15.00;99.90;;;;;;5034910;28;20854;-87
2021/06/10 00:50:13;;;;;;;9.40;8.37;;;15.00;99.90;;;;;;5034920;28;20450;-87
2021/06/10 00:52:40;;;;;;;10.90;8.90;;;14.90;99.90;;;;;;5034521;28;20482;-87
2021/06/10 00:55:08;;;;;;;11.13;8.97;;;14.90;99.90;;;;;;5034856;28;20992;-86
2021/06/10 00:57:34;;;;;;;10.77;9.37;;;14.90;99.90;;;;;;5034317;28;20443;-87
2021/06/10 01:00:01;;;;;;;10.87;8.60;;;14.90;99.90;;;;;;5034757;28;20454;-87
2021/06/10 01:02:27;;;;;;;10.00;8.37;;;14.90;99.90;;;;;;5034691;28;20463;-87
2021/06/10 01:04:55;;;;;;;10.57;9.40;;;14.90;99.90;;;;;;5034367;28;20442;-86
2021/06/10 01:07:31;;;;;;;11.40;10.03;;;14.80;99.90;;;;;;5035363;28;20453;-86
2021/06/10 01:10:03;;;;;;;11.37;9.17;;;14.80;99.90;;;;;;5034520;28;20407;-87
2021/06/10 01:12:35;;;;;;;11.13;9.37;;;14.80;99.90;;;;;;5034647;28;20451;-86
2021/06/10 01:15:06;;;;;;;12.63;9.00;;;14.80;99.90;;;;;;5034258;28;20412;-86
2021/06/10 01:17:36;;;;;;;12.30;9.73;;;14.80;99.90;;;;;;5034164;28;20921;-87
2021/06/10 01:20:07;;;;;;;12.53;9.63;;;14.80;99.90;;;;;;5034453;28;20934;-86
2021/06/10 01:22:49;;;;;;;12.10;10.07;;;14.80;99.90;;;;;;5034151;28;20450;-87
2021/06/10 01:25:31;;;;;;;11.60;9.60;;;14.80;99.90;;;;;;5034109;28;20787;-86
2021/06/10 01:28:02;;;;;;;12.07;10.73;;;14.80;99.90;;;;;;5034556;28;20431;-87
2021/06/10 01:30:32;;;;;;;12.50;9.40;;;14.80;99.90;;;;;;5034426;28;20435;-87
2021/06/10 01:33:00;;;;;;;12.20;10.40;;;14.70;99.90;;;;;;5034355;28;20466;-86
2021/06/10 01:35:31;;;;;;;12.00;9.20;;;14.70;99.90;;;;;;5034251;28;20432;-87
2021/06/10 01:37:59;;;;;;;9.30;8.30;;;14.70;99.90;;;;;;5034497;28;20454;-87
2021/06/10 01:40:27;;;;;;;9.93;8.60;;;14.60;99.90;;;;;;5034466;28;20446;-87
2021/06/10 01:42:55;;;;;;;9.80;8.80;;;14.60;99.90;;;;;;5034939;28;20490;-86
2021/06/10 01:45:23;;;;;;;10.17;9.00;;;14.60;99.90;;;;;;5034414;28;20458;-87
2021/06/10 01:47:51;;;;;;;10.83;8.80;;;14.60;99.90;;;;;;5034399;28;20505;-87
2021/06/10 01:50:18;;;;;;;9.50;8.03;;;14.50;99.90;;;;;;5034382;28;20442;-87
2021/06/10 01:52:46;;;;;;;10.43;8.00;;;14.60;99.90;;;;;;5033957;28;20851;-86
2021/06/10 01:55:15;;;;;;;10.53;9.40;;;14.50;99.90;;;;;;5033829;28;20508;-82
2021/06/10 01:57:43;;;;;;;11.17;8.50;;;14.50;99.90;;;;;;5033103;28;20948;-82
2021/06/10 02:00:13;;;;;;;10.80;8.50;;;14.50;99.90;;;;;;5032893;28;21018;-82
2021/06/10 02:02:41;;;;;;;8.90;8.00;;;14.50;99.90;;;;;;5033071;28;21051;-87
2021/06/10 02:05:11;;;;;;;12.20;8.80;;;14.40;99.90;;;;;;5033850;28;20430;-86
2021/06/10 02:07:37;;;;;;;10.80;8.40;;;14.40;99.90;;;;;;5033826;28;20423;-82
2021/06/10 02:10:05;;;;;;;10.20;8.40;;;14.40;99.90;;;;;;5032746;28;20958;-82
2021/06/10 02:12:32;;;;;;;11.17;8.83;;;14.40;99.90;;;;;;5033061;28;20466;-82
2021/06/10 02:15:00;;;;;;;9.73;8.30;;;14.30;99.90;;;;;;5033049;28;20815;-82
2021/06/10 02:17:26;;;;;;;11.23;9.50;;;14.40;99.90;;;;;;5034351;28;20437;-82
2021/06/10 02:19:53;;;;;;;11.93;9.30;;;14.30;99.90;;;;;;5036509;28;20485;-82
2021/06/10 02:22:20;;;;;;;11.03;9.83;;;14.30;99.90;;;;;;5036753;28;20470;-87
2021/06/10 02:24:48;;;;;;;11.57;9.63;;;14.30;99.90;;;;;;5037298;28;20431;-87
2021/06/10 02:27:14;;;;;;;10.43;9.20;;;14.40;99.90;;;;;;5037552;28;20486;-87
2021/06/10 02:29:40;;;;;;;10.43;8.13;;;14.40;99.90;;;;;;5037447;28;20442;-87
2021/06/10 02:32:08;;;;;;;11.07;9.37;;;14.40;99.90;;;;;;5037355;28;20466;-87
2021/06/10 02:34:35;;;;;;;10.03;9.00;;;14.50;99.90;;;;;;5037410;28;20435;-85
2021/06/10 02:37:05;;;;;;;11.40;9.53;;;14.40;99.90;;;;;;5037421;28;20809;-84
2021/06/10 02:39:35;;;;;;;11.37;8.57;;;14.40;99.90;;;;;;5036771;28;20826;-80
2021/06/10 02:42:02;;;;;;;9.23;7.13;;;14.40;99.90;;;;;;5035984;28;20463;-81
2021/06/10 02:44:29;;;;;;;11.80;8.10;;;14.50;99.90;;;;;;5036986;28;20455;-86
2021/06/10 02:46:56;;;;;;;11.07;8.20;;;14.40;99.90;;;;;;5037135;28;20454;-86
2021/06/10 02:49:25;;;;;;;10.00;7.90;;;14.40;99.90;;;;;;5037162;28;21009;-86
2021/06/10 02:51:52;;;;;;;10.13;9.13;;;14.40;99.90;;;;;;5036935;28;20494;-85
2021/06/10 02:54:21;;;;;;;8.93;8.00;;;14.40;99.90;;;;;;5036920;28;20438;-85
2021/06/10 02:56:47;;;;;;;9.93;8.00;;;14.40;99.90;;;;;;5037007;28;20477;-85
2021/06/10 02:59:16;;;;;;;9.73;8.37;;;14.30;99.90;;;;;;5036777;28;21051;-86
2021/06/10 03:01:45;;;;;;;10.07;8.37;;;14.30;99.90;;;;;;5036625;28;21072;-85
2021/06/10 03:04:14;;;;;;;10.10;8.23;;;14.30;99.90;;;;;;5036356;28;20439;-86
2021/06/10 03:06:41;;;;;;;11.20;8.30;;;14.30;99.90;;;;;;5036987;28;20502;-85
2021/06/10 03:09:08;;;;;;;11.10;9.20;;;14.20;99.90;;;;;;5035574;28;20447;-85
2021/06/10 03:11:38;;;;;;;11.87;9.90;;;14.20;99.90;;;;;;5036696;28;20463;-86
2021/06/10 03:14:06;;;;;;;12.40;9.07;;;14.20;99.90;;;;;;5036987;28;20442;-85
2021/06/10 03:16:32;;;;;;;10.13;9.10;;;14.20;99.90;;;;;;5036659;28;20431;-87
2021/06/10 03:18:59;;;;;;;10.80;8.60;;;14.20;99.90;;;;;;5036833;28;20481;-86
2021/06/10 03:21:27;;;;;;;9.77;8.60;;;14.20;99.90;;;;;;5036788;28;20467;-86
2021/06/10 03:23:53;;;;;;;10.40;9.00;;;14.20;99.90;;;;;;5036831;28;20450;-86
2021/06/10 03:26:21;;;;;;;11.47;8.23;;;14.20;99.90;;;;;;5036755;28;20446;-86
2021/06/10 03:28:49;;;;;;;11.60;8.20;;;14.20;99.90;;;;;;5036366;28;20446;-86
2021/06/10 03:31:15;;;;;;;10.60;8.10;;;14.20;99.90;;;;;;5035808;28;20474;-87
2021/06/10 03:33:43;;;;;;;9.87;8.30;;;14.20;99.90;;;;;;5036320;28;20427;-86
2021/06/10 03:36:11;;;;;;;9.97;8.50;;;14.10;99.90;;;;;;5036043;28;20942;-87
2021/06/10 03:38:40;;;;;;;11.73;8.67;;;14.10;99.90;;;;;;5035908;28;21002;-87
2021/06/10 03:41:07;;;;;;;10.40;8.60;;;14.10;99.90;;;;;;5035915;28;20435;-87
2021/06/10 03:43:36;;;;;;;10.30;8.33;;;14.10;99.90;;;;;;5036103;28;20538;-87
2021/06/10 03:46:06;;;;;;;11.20;9.20;;;14.10;99.90;;;;;;5035958;28;20455;-86
2021/06/10 03:48:33;;;;;;;9.70;8.70;;;14.10;99.90;;;;;;5035034;28;20933;-81
2021/06/10 03:50:59;;;;;;;11.10;8.17;;;14.20;99.90;;;;;;5034805;28;20439;-80
2021/06/10 03:53:26;;;;;;;8.93;8.03;;;14.20;99.90;;;;;;5034493;28;20487;-81
2021/06/10 03:55:52;;;;;;;10.13;8.80;;;14.20;99.90;;;;;;5036222;28;20808;-86
2021/06/10 03:58:21;;;;;;;9.80;8.40;;;14.20;99.90;;;;;;5035597;28;20474;-85
2021/06/10 04:00:48;;;;;;;11.20;8.70;;;14.20;99.90;;;;;;5035857;28;20457;-85
2021/06/10 04:03:16;;;;;;;11.53;9.97;;;14.30;99.90;;;;;;5035724;28;21004;-85
2021/06/10 04:05:42;;;;;;;9.43;8.43;;;14.30;99.90;;;;;;5035570;28;20512;-85
2021/06/10 04:08:08;;;;;;;12.43;9.00;;;14.30;99.90;;;;;;5035718;28;20817;-85
2021/06/10 04:10:34;;;;;;;11.10;8.00;;;14.40;99.90;;;;;;5035641;28;20453;-85
2021/06/10 04:13:00;;;;;;;10.30;8.67;;;14.40;99.90;;;;;;5035985;28;20489;-86
2021/06/10 04:15:27;;;;;;;9.70;8.70;;;14.50;99.90;;;;;;5035620;28;20450;-85
2021/06/10 04:17:53;;;;;;;10.40;8.50;;;14.50;99.90;;;;;;5035481;28;20439;-85
2021/06/10 04:20:20;;;;;;;11.60;7.90;;;14.60;99.90;;;;;;5035401;28;20477;-86
2021/06/10 04:22:47;;;;;;;10.10;8.77;;;14.60;99.90;;;;;;5035185;28;20471;-86
2021/06/10 04:25:14;;;;;;;10.30;9.20;;;14.60;99.90;;;;;;5035239;28;20434;-86
2021/06/10 04:27:40;;;;;;;8.87;7.97;;;14.60;99.90;;;;;;5035203;28;20981;-85
2021/06/10 04:30:08;;;;;;;9.60;8.60;;;14.70;99.90;;;;;;5035401;28;20454;-85
2021/06/10 04:32:35;;;;;;;8.47;7.60;;;14.70;99.90;;;;;;5035260;28;20493;-85
2021/06/10 04:35:02;;;;;;;11.50;8.30;;;14.70;99.90;;;;;;5034924;28;20443;-85
2021/06/10 04:37:30;;;;;;;10.97;9.57;;;14.80;99.90;;;;;;5035206;28;20439;-86
2021/06/10 04:39:56;;;;;;;10.60;8.73;;;14.80;99.90;;;;;;5034562;28;20486;-86
2021/06/10 04:42:23;;;;;;;9.60;8.60;;;14.80;99.90;;;;;;5034734;28;20512;-86
2021/06/10 04:44:49;;;;;;;8.77;7.90;;;14.90;99.90;;;;;;5035073;28;20942;-86
2021/06/10 04:47:16;;;;;;;10.70;8.30;;;15.00;99.90;;;;;;5035152;28;20493;-86
2021/06/10 04:49:44;;;;;;;11.33;8.73;;;15.00;99.90;;;;;;5035150;28;20520;-86
2021/06/10 04:52:10;;;;;;;15.13;9.97;;;15.10;99.90;;;;;;5034404;28;20490;-81
2021/06/10 04:54:38;;;;;;;14.83;8.70;;;15.10;99.90;;;;;;5035117;28;20447;-86
2021/06/10 04:57:05;;;;;;;9.83;8.83;;;15.20;99.90;;;;;;5034986;28;20453;-85
2021/06/10 04:59:31;;;;;;;8.63;7.80;;;15.30;99.90;;;;;;5034759;28;20588;-85
2021/06/10 05:01:57;;;;;;;8.23;7.43;;;15.40;99.90;;;;;;5034726;28;20454;-85
2021/06/10 05:04:24;;;;;;;8.07;7.30;;;15.40;99.90;;;;;;5034727;28;20450;-84
2021/06/10 05:06:50;;;;;;;7.73;7.03;;;15.50;99.90;;;;;;5034673;28;20455;-81
2021/06/10 05:09:17;;;;;;;7.80;7.10;;;15.60;99.90;;;;;;5033531;28;20442;-80
2021/06/10 05:11:44;;;;;;;8.57;7.53;;;15.70;99.90;;;;;;5033193;28;21004;-81
2021/06/10 05:14:11;;;;;;;9.30;8.30;;;15.80;99.90;;;;;;5033534;28;20451;-81
2021/06/10 05:16:37;;;;;;;10.87;9.17;;;15.90;99.90;;;;;;5033497;28;20453;-83
2021/06/10 05:19:03;;;;;;;9.30;8.37;;;16.00;99.90;;;;;;5033415;28;20482;-80
2021/06/10 05:21:29;;;;;;;11.57;8.80;;;16.10;99.90;;;;;;5033494;28;20471;-81
2021/06/10 05:23:57;;;;;;;8.83;7.80;;;16.10;99.90;;;;;;5033366;28;20443;-85
2021/06/10 05:26:23;;;;;;;8.53;7.40;;;16.20;99.90;;;;;;5034233;28;20503;-85
2021/06/10 05:28:52;;;;;;;8.30;7.27;;;16.30;99.90;;;;;;5034322;28;20462;-86
2021/06/10 05:31:19;;;;;;;7.23;6.53;;;16.40;99.90;;;;;;5034119;28;20447;-86
2021/06/10 05:33:45;;;;;;;6.97;6.30;;;16.50;99.90;;;;;;5034395;28;20450;-86
2021/06/10 05:36:11;;;;;;;8.70;7.10;;;16.70;99.90;;;;;;5036945;28;20446;-86
2021/06/10 05:38:38;;;;;;;7.50;6.80;;;16.70;99.90;;;;;;5034138;28;20479;-86
2021/06/10 05:41:04;;;;;;;7.30;6.63;;;16.70;99.90;;;;;;5033949;28;20450;-86
2021/06/10 05:43:30;;;;;;;6.43;5.77;;;16.70;99.90;;;;;;5034276;28;20777;-86
2021/06/10 05:45:58;;;;;;;6.83;5.97;;;16.70;99.90;;;;;;5034289;28;20450;-87
2021/06/10 05:48:24;;;;;;;6.90;6.30;;;16.70;99.90;;;;;;5033986;28;20554;-86
2021/06/10 05:50:50;;;;;;;7.43;6.53;;;16.80;99.90;;;;;;5034204;28;20512;-85
2021/06/10 05:53:16;;;;;;;6.80;6.20;;;16.90;99.90;;;;;;5036748;28;20985;-85
2021/06/10 05:55:45;;;;;;;6.43;5.83;;;17.00;99.90;;;;;;5037946;28;20446;-85
2021/06/10 05:58:12;;;;;;;6.90;6.30;;;17.20;99.90;;;;;;5038310;28;20549;-87
2021/06/10 06:00:39;;;;;;;6.70;6.10;;;17.30;99.90;;;;;;5037621;28;20450;-82
2021/06/10 06:03:07;;;;;;;6.30;5.80;;;17.60;99.90;;;;;;5037135;28;20497;-81
2021/06/10 06:05:34;;;;;;;6.60;6.00;;;17.80;99.90;;;;;;5037782;28;20446;-85
2021/06/10 06:08:00;;;;;;;6.63;6.07;;;18.00;99.90;;;;;;5037865;28;20468;-85
2021/06/10 06:10:27;;;;;;;6.30;5.70;;;18.20;99.90;;;;;;5037933;28;20438;-85
2021/06/10 06:12:56;;;;;;;6.63;6.10;;;18.30;99.90;;;;;;5037852;28;20981;-86
2021/06/10 06:15:22;;;;;;;6.40;5.90;;;18.40;99.90;;;;;;5037761;28;20442;-86
2021/06/10 06:17:48;;;;;;;5.30;5.00;;;18.60;99.90;;;;;;5037786;28;20447;-86
2021/06/10 06:20:19;;;;;;;5.87;5.37;;;19.00;99.90;;;;;;5037513;28;20482;-86
2021/06/10 06:22:45;;;;;;;6.60;5.10;;;19.40;99.90;;;;;;5037680;28;20843;-87
2021/06/10 06:25:13;;;;;;;7.60;5.57;;;19.70;99.90;;;;;;5037376;28;20438;-87
2021/06/10 06:27:40;;;;;;;5.50;5.10;;;20.10;99.90;;;;;;5037678;28;20833;-88
2021/06/10 06:30:08;;;;;;;5.50;5.10;;;20.60;99.90;;;;;;5037362;28;20199;-88
2021/06/10 06:32:35;;;;;;;5.20;4.90;;;21.10;99.90;;;;;;5037162;28;20215;-88
2021/06/10 06:35:02;;;;;;;5.40;5.00;;;21.60;99.90;;;;;;5037214;28;20736;-88
2021/06/10 06:37:30;;;;;;;5.35;4.93;;;22.10;99.90;;;;;;5037133;28;20203;-88
2021/06/10 06:39:56;;;;;;;5.20;4.80;;;22.20;99.90;;;;;;5037069;28;20220;-88
2021/06/10 06:42:22;;;;;;;5.78;5.38;;;22.60;99.90;;;;;;5037228;28;20725;-88
2021/06/10 06:44:49;;;;;;;4.90;4.60;;;22.80;99.90;;;;;;5037312;28;20257;-88
2021/06/10 06:47:15;;;;;;;5.10;4.80;;;23.10;99.90;;;;;;5036955;28;20230;-88
2021/06/10 06:49:41;;;;;;;4.82;4.63;;;23.30;99.90;;;;;;5036920;28;20211;-88
2021/06/10 06:52:08;;;;;;;4.53;4.22;;;23.50;99.90;;;;;;5036841;28;20239;-88
2021/06/10 06:54:36;;;;;;;5.20;4.90;;;23.80;99.90;;;;;;5037018;28;20203;-88
2021/06/10 06:57:04;;;;;;;5.88;5.47;;;23.80;99.90;;;;;;5037052;28;20572;-88
2021/06/10 06:59:30;;;;;;;5.75;5.35;;;23.80;99.90;;;;;;5037333;28;20223;-88
2021/06/10 07:01:57;;;;;;;4.72;4.43;;;23.90;99.90;;;;;;5036874;28;20231;-88
2021/06/10 07:04:24;;;;;;;5.88;5.47;;;23.90;99.90;;;;;;5036307;28;20195;-88
2021/06/10 07:06:51;;;;;;;5.43;5.03;;;23.70;99.90;;;;;;5036945;28;20660;-88
2021/06/10 07:09:18;;;;;;;5.28;4.97;;;23.60;99.90;;;;;;5036907;28;20229;-88
2021/06/10 07:11:45;;;;;;;4.95;4.65;;;23.80;99.90;;;;;;5036801;28;20309;-88
2021/06/10 07:14:12;;;;;;;5.53;5.13;;;23.80;99.90;;;;;;5036906;28;20579;-88
2021/06/10 07:16:38;;;;;;;5.38;5.07;;;23.70;99.90;;;;;;5036601;28;20203;-87
2021/06/10 07:19:04;;;;;;;5.55;5.05;;;23.80;99.90;;;;;;5036442;28;20314;-88
2021/06/10 07:21:42;;;;;;;5.20;4.80;;;23.90;99.90;;;;;;5036597;28;20227;-88
2021/06/10 07:24:08;;;;;;;5.35;4.95;;;24.40;99.90;;;;;;5036360;28;20187;-89
2021/06/10 07:26:34;;;;;;;5.85;5.38;;;24.80;99.90;;;;;;5036599;28;20205;-88
2021/06/10 07:29:02;;;;;;;6.60;6.10;;;25.30;99.90;;;;;;5036392;28;20248;-89
2021/06/10 07:31:28;;;;;;;5.95;5.43;;;26.00;99.90;;;;;;5036954;28;20230;-89
2021/06/10 07:33:55;;;;;;;7.43;6.82;;;26.40;99.90;;;;;;5036335;28;20199;-88
2021/06/10 07:36:22;;;;;;;6.78;6.18;;;27.10;99.90;;;;;;5036950;28;20203;-89
2021/06/10 07:38:48;;;;;;;7.43;6.93;;;27.60;99.90;;;;;;5036719;28;20242;-88
2021/06/10 07:41:14;;;;;;;7.35;6.88;;;27.40;98.20;;;;;;5036699;28;20238;-90
2021/06/10 07:43:41;;;;;;;7.30;6.78;;;27.80;98.30;;;;;;5036042;28;20199;-89
2021/06/10 07:46:08;;;;;;;6.80;6.22;;;28.20;96.80;;;;;;5036136;28;20207;-88
2021/06/10 07:48:35;;;;;;;7.00;6.50;;;28.60;95.70;;;;;;5036077;28;20200;-89
2021/06/10 07:51:04;;;;;;;6.82;6.32;;;28.80;93.80;;;;;;5035987;28;20204;-88
2021/06/10 07:53:30;;;;;;;7.65;7.05;;;29.10;91.70;;;;;;5035629;28;20240;-88
2021/06/10 07:55:58;;;;;;;7.35;6.93;;;29.10;91.20;;;;;;5035701;28;20204;-88
2021/06/10 07:58:24;;;;;;;6.90;6.40;;;28.80;89.80;;;;;;5035582;28;20216;-89
2021/06/10 08:00:51;;;;;;;7.30;6.80;;;29.40;90.00;;;;;;5036309;28;20265;-89
2021/06/10 08:03:18;;;;;;;6.70;6.30;;;29.90;85.80;;;;;;5035880;28;20626;-89
2021/06/10 08:05:46;;;;;;;7.38;6.88;;;30.80;83.50;;;;;;5035872;28;20183;-89
2021/06/10 08:08:13;;;;;;;6.82;6.43;;;31.70;78.50;;;;;;5036459;28;20233;-89
2021/06/10 08:10:40;;;;;;;8.27;7.68;;;32.60;74.80;;;;;;5035735;28;20192;-88
2021/06/10 08:13:08;;;;;;;7.50;7.00;;;33.70;67.80;;;;;;5035832;28;20327;-89
2021/06/10 08:15:36;;;;;;;8.27;7.68;;;34.00;65.60;;;;;;5035024;28;20282;-89
2021/06/10 08:18:02;;;;;;;8.30;7.78;;;34.50;63.10;;;;;;5035552;28;20185;-88
2021/06/10 08:20:30;;;;;;;8.02;7.53;;;34.70;59.80;;;;;;5035501;28;20691;-89
2021/06/10 08:22:59;;;;;;;8.93;8.27;;;34.70;59.20;;;;;;5035587;28;20661;-88
2021/06/10 08:25:27;;;;;;;7.90;7.32;;;35.00;58.10;;;;;;5035589;28;20184;-89
2021/06/10 08:27:54;;;;;;;7.03;6.53;;;34.80;56.40;;;;;;5036212;28;20720;-89
2021/06/10 08:30:21;;;;;;;8.05;7.38;;;34.80;58.30;;;;;;5035825;28;20644;-89
2021/06/10 08:32:47;;;;;;;7.30;6.80;;;35.00;58.60;;;;;;5035354;28;20227;-90
2021/06/10 08:35:14;;;;;;;9.05;8.35;;;35.10;56.90;;;;;;5035294;28;20184;-89
2021/06/10 08:37:42;;;;;;;8.90;8.30;;;34.90;56.60;;;;;;5035815;28;20606;-89
2021/06/10 08:40:10;;;;;;;10.30;9.50;;;34.50;56.50;;;;;;5035197;28;20306;-89
2021/06/10 08:42:37;;;;;;;10.10;9.30;;;33.90;58.90;;;;;;5035244;28;20259;-90
2021/06/10 08:45:05;;;;;;;9.90;9.10;;;33.60;58.50;;;;;;5035194;28;20181;-87
2021/06/10 08:47:33;;;;;;;9.88;9.18;;;33.10;58.40;;;;;;5035179;28;20250;-89
2021/06/10 08:50:03;;;;;;;10.77;9.75;;;32.40;61.80;;;;;;5035094;28;20234;-89
2021/06/10 08:52:31;;;;;;;9.40;8.70;;;31.80;63.50;;;;;;5034620;28;20268;-89
2021/06/10 08:54:58;;;;;;;9.77;8.88;;;30.90;64.50;;;;;;5034647;28;20188;-89
2021/06/10 08:57:25;;;;;;;10.60;9.70;;;30.50;66.60;;;;;;5035483;28;20683;-89
2021/06/10 08:59:51;;;;;;;9.85;8.98;;;30.00;70.00;;;;;;5035545;28;20263;-89
2021/06/10 09:02:17;;;;;;;9.18;8.45;;;29.50;69.80;;;;;;5034830;28;20236;-89
2021/06/10 09:04:44;;;;;;;9.70;8.85;;;28.70;70.90;;;;;;5034455;28;20186;-89
2021/06/10 09:07:10;;;;;;;10.07;9.18;;;28.40;73.00;;;;;;5034810;28;20238;-89
2021/06/10 09:09:39;;;;;;;9.52;8.80;;;28.00;74.70;;;;;;5035035;28;20195;-89
2021/06/10 09:12:09;;;;;;;8.70;8.02;;;27.70;75.30;;;;;;5034374;28;20269;-89
2021/06/10 09:14:54;;;;;;;10.02;9.13;;;27.70;79.90;;;;;;5035040;28;20236;-89
2021/06/10 09:17:28;;;;;;;11.40;10.40;;;27.70;79.30;;;;;;5034784;28;20189;-89
2021/06/10 09:19:55;;;;;;;9.30;8.50;;;27.60;79.30;;;;;;5034588;28;20211;-89
2021/06/10 09:22:27;;;;;;;8.70;8.00;;;27.50;79.00;;;;;;5034247;28;20227;-88
2021/06/10 09:25:03;;;;;;;9.82;8.98;;;27.30;78.80;;;;;;5034614;28;20237;-89
2021/06/10 09:27:32;;;;;;;10.00;9.20;;;27.30;81.00;;;;;;5034148;28;20187;-88
2021/06/10 09:30:00;;;;;;;10.25;9.40;;;27.40;79.20;;;;;;5034417;28;20188;-88
2021/06/10 09:32:30;;;;;;;11.55;10.35;;;27.30;81.00;;;;;;5034525;28;20223;-88
2021/06/10 09:34:59;;;;;;;9.63;8.93;;;27.20;81.00;;;;;;5034378;28;20188;-88
2021/06/10 09:37:30;;;;;;;10.00;9.13;;;27.30;81.60;;;;;;5034487;28;20199;-89
2021/06/10 09:39:57;;;;;;;9.30;8.48;;;27.10;81.20;;;;;;5034031;28;20690;-88
2021/06/10 09:42:26;;;;;;;10.25;9.35;;;27.20;80.90;;;;;;5034411;28;20234;-88
2021/06/10 09:44:57;;;;;;;10.18;9.35;;;27.40;79.50;;;;;;5034042;28;20655;-88
2021/06/10 09:47:34;;;;;;;10.15;9.35;;;27.60;78.30;;;;;;5034038;28;20658;-88
2021/06/10 09:50:19;;;;;;;9.13;8.32;;;27.60;78.10;;;;;;5034210;28;20281;-89
2021/06/10 09:52:53;;;;;;;10.02;9.02;;;27.70;82.20;;;;;;5033891;28;20234;-89
2021/06/10 09:55:35;;;;;;;9.88;8.95;;;27.70;80.90;;;;;;5034233;28;20187;-89
2021/06/10 09:58:24;;;;;;;9.90;9.05;;;27.40;81.30;;;;;;5034071;28;20180;-89
2021/06/10 10:00:53;;;;;;;10.30;9.27;;;27.40;82.80;;;;;;5034106;28;20234;-86
2021/06/10 10:03:41;;;;;;;11.25;10.25;;;27.50;81.20;;;;;;5034118;28;20210;-86
2021/06/10 10:06:17;;;;;;;12.52;11.38;;;27.60;81.10;;;;;;5033756;28;20729;-86
2021/06/10 10:08:46;;;;;;;11.77;10.77;;;27.40;81.80;;;;;;5034034;28;20722;-86
2021/06/10 10:11:14;;;;;;;10.35;9.45;;;26.90;81.50;;;;;;5033766;28;21644;-86
2021/06/10 10:13:41;;;;;;;11.77;10.70;;;26.50;84.80;;;;;;5034189;28;20199;-86
2021/06/10 10:16:10;;;;;;;13.02;11.82;;;26.20;87.00;;;;;;5034038;28;20266;-86
2021/06/10 10:18:37;;;;;;;11.32;10.43;;;25.80;87.00;;;;;;5034354;28;20247;-86
2021/06/10 10:21:05;;;;;;;14.15;12.85;;;25.50;87.00;;;;;;5033890;28;20192;-85
2021/06/10 10:23:32;;;;;;;13.30;12.00;;;25.20;88.40;;;;;;5034299;28;20326;-86
2021/06/10 10:26:00;;;;;;;13.32;12.02;;;25.00;89.20;;;;;;5034680;28;20559;-87
2021/06/10 10:28:28;;;;;;;11.80;10.70;;;24.90;88.90;;;;;;5034054;28;20206;-86
2021/06/10 10:30:56;;;;;;;11.77;10.75;;;24.70;90.00;;;;;;5033797;28;20184;-86
2021/06/10 10:33:25;;;;;;;11.18;10.18;;;24.90;90.40;;;;;;5033812;28;20191;-86
2021/06/10 10:35:53;;;;;;;12.35;11.10;;;25.10;90.20;;;;;;5034081;28;20253;-86
2021/06/10 10:38:30;;;;;;;12.85;11.48;;;25.30;89.70;;;;;;5034980;28;20198;-86
2021/06/10 10:41:00;;;;;;;14.25;12.95;;;25.50;90.60;;;;;;5037226;28;20589;-85
2021/06/10 10:43:28;;;;;;;13.07;11.98;;;25.70;90.60;;;;;;5037290;28;20191;-86
2021/06/10 10:46:09;;;;;;;13.27;12.02;;;26.10;87.00;;;;;;5037553;28;20200;-87
2021/06/10 10:48:42;;;;;;;12.90;11.80;;;26.20;85.70;;;;;;5037218;28;20191;-85
2021/06/10 10:51:33;;;;;;;14.77;13.40;;;26.40;87.20;;;;;;5039678;28;20213;-89
2021/06/10 10:54:01;;;;;;;13.70;12.48;;;26.60;84.40;;;;;;5035044;28;20667;-86
2021/06/10 10:56:38;;;;;;;12.82;11.80;;;26.80;83.10;;;;;;5037041;28;20203;-89
2021/06/10 10:59:10;;;;;;;12.90;11.90;;;26.90;85.00;;;;;;5037048;28;20207;-88
2021/06/10 11:01:41;;;;;;;12.60;11.35;;;27.10;85.70;;;;;;5037104;28;20223;-88
2021/06/10 11:04:30;;;;;;;11.75;10.70;;;27.20;84.50;;;;;;5036779;28;20230;-86
2021/06/10 11:06:57;;;;;;;13.10;12.00;;;27.40;86.10;;;;;;5036478;28;20203;-86
2021/06/10 11:09:41;;;;;;;13.85;12.57;;;27.40;81.40;;;;;;5036911;28;20253;-88
2021/06/10 11:12:10;;;;;;;12.93;11.82;;;27.30;80.20;;;;;;5037338;28;20235;-89
2021/06/10 11:14:43;;;;;;;13.40;12.30;;;26.80;80.80;;;;;;5036596;28;20207;-85
2021/06/10 11:17:24;;;;;;;13.75;12.55;;;26.50;81.10;;;;;;5036623;28;20221;-84
2021/06/10 11:19:57;;;;;;;14.55;12.25;;;26.20;83.50;;;;;;5036298;28;20223;-84
2021/06/10 11:22:32;;;;;;;12.25;11.15;;;25.90;82.90;;;;;;5036666;28;20219;-85
2021/06/10 11:24:59;;;;;;;14.23;12.93;;;25.80;84.80;;;;;;5036293;28;20187;-83
2021/06/10 11:27:34;;;;;;;12.60;11.50;;;25.80;85.80;;;;;;5036537;28;20228;-84
2021/06/10 11:30:28;;;;;;;13.38;12.23;;;25.80;84.80;;;;;;5036236;28;20191;-85
2021/06/10 11:33:06;;;;;;;13.02;11.93;;;25.80;84.10;;;;;;5036693;28;20220;-86
2021/06/10 11:35:37;;;;;;;13.38;12.27;;;25.60;85.80;;;;;;5036261;28;20694;-84
2021/06/10 11:38:09;;;;;;;14.93;12.73;;;25.50;88.10;;;;;;5036435;28;20672;-85
2021/06/10 11:40:36;;;;;;;13.27;12.00;;;25.30;87.40;;;;;;5036435;28;20211;-85
2021/06/10 11:43:06;;;;;;;14.75;13.45;;;25.10;90.00;;;;;;5036482;28;20258;-85
2021/06/10 11:45:32;;;;;;;15.02;13.60;;;24.90;92.70;;;;;;5036480;28;20188;-86
2021/06/10 11:47:58;;;;;;;16.77;15.02;;;24.70;95.20;;;;;;5036495;28;20194;-85
2021/06/10 11:50:28;;;;;;;15.40;13.90;;;24.50;96.80;;;;;;5036088;28;20180;-84
2021/06/10 11:52:57;;;;;;;18.10;16.30;;;24.20;98.80;;;;;;5035564;28;20725;-85
2021/06/10 11:55:29;;;;;;;16.95;15.35;;;24.10;99.90;;;;;;5036217;28;20202;-84
2021/06/10 11:58:00;;;;;;;17.33;15.63;;;23.80;99.90;;;;;;5036403;28;20231;-84
2021/06/10 12:00:38;;;;;;;15.73;14.30;;;23.90;99.90;;;;;;5035717;28;20214;-85
2021/06/10 12:03:06;;;;;;;16.57;14.77;;;23.90;99.90;;;;;;5035951;28;20218;-85
2021/06/10 12:05:36;;;;;;;14.18;12.88;;;23.90;99.90;;;;;;5035946;28;20202;-84
2021/06/10 12:08:16;;;;;;;15.60;14.20;;;23.90;99.90;;;;;;5036244;28;20207;-85
2021/06/10 12:10:48;;;;;;;14.23;12.88;;;24.00;99.90;;;;;;5035843;28;20183;-85
2021/06/10 12:13:14;;;;;;;15.15;13.40;;;24.20;99.90;;;;;;5035762;28;20235;-85
2021/06/10 12:15:44;;;;;;;15.33;13.87;;;24.20;99.90;;;;;;5036189;28;20195;-84
2021/06/10 12:18:13;;;;;;;14.30;13.00;;;24.30;99.90;;;;;;5035987;28;20195;-85
2021/06/10 12:20:41;;;;;;;14.50;13.00;;;24.40;99.90;;;;;;5035835;28;20220;-85
2021/06/10 12:23:16;;;;;;;12.10;11.10;;;24.50;99.90;;;;;;5035554;28;20638;-83
2021/06/10 12:25:49;;;;;;;12.05;10.95;;;24.60;99.90;;;;;;5035661;28;20187;-86
2021/06/10 12:28:30;;;;;;;11.73;10.73;;;24.50;99.90;;;;;;5036208;28;20196;-84
2021/06/10 12:31:02;;;;;;;10.17;9.27;;;24.40;99.90;;;;;;5035352;28;20199;-85
2021/06/10 12:33:28;;;;;;;8.70;7.90;;;24.30;99.90;;;;;;5035237;28;20176;-86
2021/06/10 12:35:56;;;;;;;6.70;6.20;;;24.30;99.90;;;;;;5035127;28;20191;-85
2021/06/10 12:38:32;;;;;;;6.27;5.87;;;24.30;99.90;;;;;;5035288;28;20639;-86
2021/06/10 12:41:18;;;;;;;8.45;7.85;;;24.40;99.70;;;;;;5035072;28;20225;-87
2021/06/10 12:43:45;;;;;;;9.45;8.57;;;24.40;99.30;;;;;;5036075;28;20218;-85
2021/06/10 12:46:12;;;;;;;9.35;8.65;;;24.40;98.90;;;;;;5035782;28;20619;-87
2021/06/10 12:48:39;;;;;;;9.18;8.50;;;24.30;99.10;;;;;;5035439;28;20192;-87